Time;durP1;ratioP1;P1;durP2;ratioP2;P2;SDS_P1;SDS_P2;PMS_P1;PMS_P2;Temp;Humidity;BMP_temperature;BMP_pressure;BME280_temperature;BME280_humidity;BME280_pressure;Samples;Min_cycle;Max_cycle;Signal;HPM_P1;HPM_P2
2023/06/09 00:01:53;;;;;;;9.43;7.68;;;;;;;;;;4952755;28;20652;-77
2023/06/09 00:04:23;;;;;;;7.95;7.05;;;;;;;;;;4952918;28;20298;-76
2023/06/09 00:06:54;;;;;;;8.05;6.97;;;;;;;;;;4952317;28;20214;-77
2023/06/09 00:09:22;;;;;;;8.60;7.75;;;;;;;;;;4952671;29;20199;-77
2023/06/09 00:11:49;;;;;;;7.88;7.18;;;;;;;;;;4952647;29;20199;-77
2023/06/09 00:14:16;;;;;;;7.65;7.05;;;;;;;;;;4952282;29;20195;-77
2023/06/09 00:16:46;;;;;;;13.20;7.15;;;;;;;;;;4954380;28;20231;-77
2023/06/09 00:19:13;;;;;;;7.93;7.13;;;;;;;;;;4956924;29;20206;-78
2023/06/09 00:21:40;;;;;;;7.90;7.15;;;;;;;;;;4956647;29;20238;-77
2023/06/09 00:24:09;;;;;;;7.57;6.85;;;;;;;;;;4956277;29;20278;-77
2023/06/09 00:26:37;;;;;;;8.38;7.20;;;;;;;;;;4956916;29;20199;-77
2023/06/09 00:29:04;;;;;;;7.65;6.95;;;;;;;;;;4956615;29;20206;-77
2023/06/09 00:31:31;;;;;;;7.93;7.00;;;;;;;;;;4956312;28;20407;-77
2023/06/09 00:33:58;;;;;;;8.38;7.30;;;;;;;;;;4956410;28;20234;-77
2023/06/09 00:36:25;;;;;;;10.65;7.68;;;;;;;;;;4956186;28;20263;-77
2023/06/09 00:38:52;;;;;;;9.73;7.55;;;;;;;;;;4955689;28;20234;-77
2023/06/09 00:41:21;;;;;;;9.48;7.53;;;;;;;;;;4956187;28;20203;-77
2023/06/09 00:43:49;;;;;;;8.73;7.75;;;;;;;;;;4956477;28;20211;-77
2023/06/09 00:46:16;;;;;;;9.95;7.20;;;;;;;;;;4956166;28;20234;-76
2023/06/09 00:48:43;;;;;;;8.02;7.22;;;;;;;;;;4956209;28;20282;-76
2023/06/09 00:51:11;;;;;;;7.60;6.90;;;;;;;;;;4956001;29;20199;-76
2023/06/09 00:53:38;;;;;;;8.05;6.97;;;;;;;;;;4955893;28;20246;-77
2023/06/09 00:56:05;;;;;;;8.75;7.32;;;;;;;;;;4956089;29;20298;-76
2023/06/09 00:58:34;;;;;;;7.93;7.22;;;;;;;;;;4956067;29;20231;-77
2023/06/09 01:01:02;;;;;;;9.35;7.60;;;;;;;;;;4956039;28;20294;-77
2023/06/09 01:03:32;;;;;;;8.05;7.32;;;;;;;;;;4955733;28;20207;-77
2023/06/09 01:06:03;;;;;;;8.02;7.13;;;;;;;;;;4955875;29;20286;-77
2023/06/09 01:08:35;;;;;;;9.10;7.57;;;;;;;;;;4955163;29;20200;-77
2023/06/09 01:11:05;;;;;;;7.90;7.20;;;;;;;;;;4956445;29;20257;-77
2023/06/09 01:13:38;;;;;;;9.45;7.60;;;;;;;;;;4955955;28;20230;-77
2023/06/09 01:16:07;;;;;;;8.40;7.40;;;;;;;;;;4955512;29;20258;-77
2023/06/09 01:18:36;;;;;;;7.90;7.05;;;;;;;;;;4963630;28;20313;-77
2023/06/09 01:21:12;;;;;;;7.95;7.20;;;;;;;;;;4975327;28;20261;-77
2023/06/09 01:23:44;;;;;;;8.05;6.93;;;;;;;;;;4974690;28;20593;-77
2023/06/09 01:26:14;;;;;;;7.78;7.07;;;;;;;;;;4974804;28;20210;-77
2023/06/09 01:28:43;;;;;;;8.00;7.30;;;;;;;;;;4973930;28;20751;-77
2023/06/09 01:31:11;;;;;;;8.43;7.32;;;;;;;;;;4974629;28;20230;-77
2023/06/09 01:33:39;;;;;;;7.80;7.00;;;;;;;;;;4975230;28;20222;-77
2023/06/09 01:36:06;;;;;;;9.50;7.45;;;;;;;;;;4974172;28;20683;-77
2023/06/09 01:38:33;;;;;;;8.02;7.22;;;;;;;;;;4974789;28;20237;-76
2023/06/09 01:41:01;;;;;;;7.88;7.18;;;;;;;;;;4974522;28;20218;-77
2023/06/09 01:43:29;;;;;;;8.43;7.63;;;;;;;;;;4974654;28;20207;-77
2023/06/09 01:45:56;;;;;;;8.77;7.47;;;;;;;;;;4974603;28;20226;-77
2023/06/09 01:48:28;;;;;;;7.90;7.07;;;;;;;;;;4961776;28;20197;-77
2023/06/09 01:50:58;;;;;;;9.98;7.15;;;;;;;;;;4946030;28;20290;-77
2023/06/09 01:53:28;;;;;;;9.25;7.57;;;;;;;;;;4954988;28;20234;-77
2023/06/09 01:55:57;;;;;;;8.27;7.10;;;;;;;;;;4955361;28;20199;-77
2023/06/09 01:58:26;;;;;;;8.18;7.32;;;;;;;;;;4955147;28;20321;-77
2023/06/09 02:00:55;;;;;;;10.13;7.80;;;;;;;;;;4954981;28;20227;-77
2023/06/09 02:03:24;;;;;;;7.85;7.13;;;;;;;;;;4954424;28;20206;-76
2023/06/09 02:05:53;;;;;;;8.07;7.35;;;;;;;;;;4954981;28;20292;-77
2023/06/09 02:08:21;;;;;;;8.10;7.30;;;;;;;;;;4954636;28;20294;-76
2023/06/09 02:10:48;;;;;;;7.78;7.00;;;;;;;;;;4954586;28;20231;-77
2023/06/09 02:13:16;;;;;;;8.35;7.55;;;;;;;;;;4954710;28;20298;-77
2023/06/09 02:15:44;;;;;;;8.00;7.18;;;;;;;;;;4954483;28;20688;-77
2023/06/09 02:18:13;;;;;;;8.00;7.25;;;;;;;;;;4954097;29;20231;-78
2023/06/09 02:20:40;;;;;;;9.88;8.48;;;;;;;;;;4954097;29;20289;-77
2023/06/09 02:23:07;;;;;;;9.18;7.90;;;;;;;;;;4954243;29;20285;-77
2023/06/09 02:25:34;;;;;;;9.25;7.75;;;;;;;;;;4954184;29;20291;-77
2023/06/09 02:28:03;;;;;;;8.13;7.32;;;;;;;;;;4954442;28;20195;-76
2023/06/09 02:30:30;;;;;;;8.45;7.65;;;;;;;;;;4954202;28;20235;-77
2023/06/09 02:32:58;;;;;;;11.70;7.50;;;;;;;;;;4953874;28;20210;-77
2023/06/09 02:35:26;;;;;;;9.45;7.60;;;;;;;;;;4953636;28;20199;-77
2023/06/09 02:37:53;;;;;;;7.75;7.00;;;;;;;;;;4954226;28;20707;-77
2023/06/09 02:40:21;;;;;;;12.18;7.70;;;;;;;;;;4953072;28;20294;-77
2023/06/09 02:42:49;;;;;;;8.30;7.13;;;;;;;;;;4954122;28;20306;-77
2023/06/09 02:45:16;;;;;;;8.45;7.65;;;;;;;;;;4953699;29;20283;-77
2023/06/09 02:47:43;;;;;;;9.20;8.23;;;;;;;;;;4954135;29;20346;-78
2023/06/09 02:50:10;;;;;;;8.93;8.02;;;;;;;;;;4953550;29;20289;-77
2023/06/09 02:52:39;;;;;;;11.23;8.25;;;;;;;;;;4953977;29;20748;-77
2023/06/09 02:55:07;;;;;;;8.20;7.50;;;;;;;;;;4953825;29;20219;-77
2023/06/09 02:57:34;;;;;;;9.93;8.13;;;;;;;;;;4954059;28;20195;-76
2023/06/09 03:00:03;;;;;;;10.60;8.07;;;;;;;;;;4953692;29;20285;-77
2023/06/09 03:02:32;;;;;;;9.98;8.27;;;;;;;;;;4953673;28;20626;-77
2023/06/09 03:05:00;;;;;;;8.02;7.25;;;;;;;;;;4953517;28;20207;-77
2023/06/09 03:07:27;;;;;;;8.27;7.45;;;;;;;;;;4953636;28;20203;-79
2023/06/09 03:09:56;;;;;;;10.50;7.65;;;;;;;;;;4953516;28;20294;-77
2023/06/09 03:12:23;;;;;;;8.75;7.90;;;;;;;;;;4953608;29;20198;-77
2023/06/09 03:14:51;;;;;;;8.40;7.35;;;;;;;;;;4953119;29;20239;-77
2023/06/09 03:17:18;;;;;;;8.98;7.97;;;;;;;;;;4953131;29;20330;-77
2023/06/09 03:19:45;;;;;;;8.52;7.72;;;;;;;;;;4953281;28;20241;-76
2023/06/09 03:22:12;;;;;;;8.85;7.82;;;;;;;;;;4953931;28;20243;-77
2023/06/09 03:24:40;;;;;;;8.85;8.05;;;;;;;;;;4953504;28;20195;-76
2023/06/09 03:27:09;;;;;;;8.85;8.02;;;;;;;;;;4953545;29;20203;-77
2023/06/09 03:29:36;;;;;;;8.70;8.00;;;;;;;;;;4953078;28;20301;-78
2023/06/09 03:32:03;;;;;;;8.88;7.97;;;;;;;;;;4952547;28;20294;-76
2023/06/09 03:34:31;;;;;;;9.57;8.68;;;;;;;;;;4953081;28;20298;-76
2023/06/09 03:36:58;;;;;;;9.32;8.45;;;;;;;;;;4953370;29;20200;-77
2023/06/09 03:39:26;;;;;;;8.68;7.80;;;;;;;;;;4952598;29;20334;-76
2023/06/09 03:41:55;;;;;;;9.57;8.60;;;;;;;;;;4953399;29;20628;-76
2023/06/09 03:44:24;;;;;;;9.35;8.38;;;;;;;;;;4953199;28;20206;-77
2023/06/09 03:46:51;;;;;;;8.70;7.90;;;;;;;;;;4952244;28;20245;-77
2023/06/09 03:49:18;;;;;;;8.93;7.90;;;;;;;;;;4953100;29;20298;-76
2023/06/09 03:51:45;;;;;;;14.55;8.40;;;;;;;;;;4952482;28;20199;-76
2023/06/09 03:54:13;;;;;;;10.60;7.68;;;;;;;;;;4952712;28;20293;-78
2023/06/09 03:56:40;;;;;;;9.20;8.30;;;;;;;;;;4953298;28;20206;-77
2023/06/09 03:59:07;;;;;;;8.80;8.00;;;;;;;;;;4953063;28;20311;-78
2023/06/09 04:01:36;;;;;;;8.85;8.00;;;;;;;;;;4952305;28;20214;-76
2023/06/09 04:04:03;;;;;;;10.27;7.80;;;;;;;;;;4952352;29;20624;-78
2023/06/09 04:06:31;;;;;;;9.60;7.88;;;;;;;;;;4953100;29;20282;-77
2023/06/09 04:08:58;;;;;;;9.00;8.10;;;;;;;;;;4952776;28;20199;-77
2023/06/09 04:11:25;;;;;;;9.25;8.25;;;;;;;;;;4952632;29;20289;-76
2023/06/09 04:13:52;;;;;;;8.10;7.40;;;;;;;;;;4953033;29;20230;-75
2023/06/09 04:16:19;;;;;;;8.57;7.78;;;;;;;;;;4952005;29;20231;-77
2023/06/09 04:18:48;;;;;;;8.50;7.70;;;;;;;;;;4952460;28;20639;-77
2023/06/09 04:21:15;;;;;;;8.95;8.15;;;;;;;;;;4953090;28;20298;-77
2023/06/09 04:23:42;;;;;;;9.38;8.23;;;;;;;;;;4952578;28;20292;-77
2023/06/09 04:26:13;;;;;;;9.25;8.13;;;;;;;;;;4952921;28;20295;-77
2023/06/09 04:28:41;;;;;;;8.95;8.05;;;;;;;;;;4952921;28;20210;-77
2023/06/09 04:31:08;;;;;;;8.60;7.80;;;;;;;;;;4952162;28;20201;-77
2023/06/09 04:33:36;;;;;;;8.88;8.07;;;;;;;;;;4952451;28;20210;-77
2023/06/09 04:36:05;;;;;;;9.38;8.48;;;;;;;;;;4952515;28;20669;-77
2023/06/09 04:38:33;;;;;;;9.15;8.35;;;;;;;;;;4954977;28;20718;-78
2023/06/09 04:41:01;;;;;;;9.27;8.38;;;;;;;;;;4971800;28;20210;-77
2023/06/09 04:43:28;;;;;;;9.63;8.18;;;;;;;;;;4972126;28;20262;-77
2023/06/09 04:45:57;;;;;;;9.85;8.23;;;;;;;;;;4970638;28;20333;-76
2023/06/09 04:48:24;;;;;;;8.40;7.70;;;;;;;;;;4972347;28;20198;-77
2023/06/09 04:50:51;;;;;;;8.95;8.05;;;;;;;;;;4971463;28;20293;-76
2023/06/09 04:53:20;;;;;;;9.10;8.20;;;;;;;;;;4971931;28;20282;-78
2023/06/09 04:55:48;;;;;;;9.07;8.07;;;;;;;;;;4965091;28;20286;-77
2023/06/09 04:58:16;;;;;;;8.75;8.00;;;;;;;;;;4941374;28;20227;-77
2023/06/09 05:00:43;;;;;;;8.90;8.10;;;;;;;;;;4950757;28;20201;-76
2023/06/09 05:03:13;;;;;;;8.30;7.57;;;;;;;;;;4950037;28;20290;-77
2023/06/09 05:05:40;;;;;;;8.52;7.72;;;;;;;;;;4950216;28;20230;-76
2023/06/09 05:08:07;;;;;;;8.80;7.90;;;;;;;;;;4951908;28;20199;-77
2023/06/09 05:10:36;;;;;;;9.15;8.25;;;;;;;;;;4955813;28;20198;-77
2023/06/09 05:13:04;;;;;;;10.05;8.52;;;;;;;;;;4954595;28;20270;-77
2023/06/09 05:15:32;;;;;;;8.90;8.10;;;;;;;;;;4955206;29;20203;-77
2023/06/09 05:17:59;;;;;;;9.48;8.57;;;;;;;;;;4954439;28;20203;-77
2023/06/09 05:20:26;;;;;;;8.65;7.85;;;;;;;;;;4951802;29;20227;-77
2023/06/09 05:22:53;;;;;;;10.38;8.70;;;;;;;;;;4952571;29;20294;-78
2023/06/09 05:25:21;;;;;;;16.08;8.32;;;;;;;;;;4947346;29;20216;-77
2023/06/09 05:27:49;;;;;;;10.40;8.75;;;;;;;;;;4935985;29;20232;-76
2023/06/09 05:30:16;;;;;;;9.98;9.05;;;;;;;;;;4941632;29;20231;-76
2023/06/09 05:32:44;;;;;;;10.10;9.10;;;;;;;;;;4950258;28;20653;-80
2023/06/09 05:35:11;;;;;;;10.35;9.45;;;;;;;;;;4950829;28;20253;-77
2023/06/09 05:37:41;;;;;;;10.45;9.35;;;;;;;;;;4950558;28;20584;-77
2023/06/09 05:40:09;;;;;;;10.32;9.27;;;;;;;;;;4950469;28;20223;-78
2023/06/09 05:42:36;;;;;;;10.27;9.15;;;;;;;;;;4951872;28;20286;-77
2023/06/09 05:45:05;;;;;;;11.48;9.25;;;;;;;;;;4960992;28;20237;-76
2023/06/09 05:47:33;;;;;;;10.30;9.15;;;;;;;;;;4955377;28;20598;-77
2023/06/09 05:50:00;;;;;;;9.88;8.75;;;;;;;;;;4955224;28;20208;-77
2023/06/09 05:52:28;;;;;;;15.82;9.18;;;;;;;;;;4955372;28;20639;-76
2023/06/09 05:54:56;;;;;;;10.60;9.50;;;;;;;;;;4955074;28;20285;-77
2023/06/09 05:57:25;;;;;;;9.85;8.75;;;;;;;;;;4954711;28;20729;-77
2023/06/09 05:59:53;;;;;;;9.93;8.93;;;;;;;;;;4955059;28;20234;-77
2023/06/09 06:02:21;;;;;;;9.93;8.90;;;;;;;;;;4955075;28;20231;-78
2023/06/09 06:04:48;;;;;;;10.35;9.35;;;;;;;;;;4954691;28;20199;-78
2023/06/09 06:07:16;;;;;;;9.38;8.30;;;;;;;;;;4955588;28;20295;-77
2023/06/09 06:09:43;;;;;;;10.10;9.18;;;;;;;;;;4955036;28;20731;-78
2023/06/09 06:12:11;;;;;;;9.60;8.57;;;;;;;;;;4954456;28;20235;-78
2023/06/09 06:14:38;;;;;;;10.57;8.77;;;;;;;;;;4954573;28;20254;-77
2023/06/09 06:17:05;;;;;;;9.70;8.55;;;;;;;;;;4954925;29;20281;-78
2023/06/09 06:19:34;;;;;;;10.30;8.63;;;;;;;;;;4954734;28;20325;-78
2023/06/09 06:22:01;;;;;;;9.63;8.60;;;;;;;;;;4954796;28;20211;-78
2023/06/09 06:24:28;;;;;;;10.20;8.25;;;;;;;;;;4954978;28;20286;-77
2023/06/09 06:26:55;;;;;;;8.80;8.10;;;;;;;;;;4954653;28;20222;-77
2023/06/09 06:29:23;;;;;;;9.35;8.43;;;;;;;;;;4954655;28;20282;-77
2023/06/09 06:31:50;;;;;;;9.52;8.48;;;;;;;;;;4955024;28;20230;-77
2023/06/09 06:34:17;;;;;;;10.20;9.20;;;;;;;;;;4954666;29;20209;-76
2023/06/09 06:36:46;;;;;;;12.88;9.88;;;;;;;;;;4954093;28;20199;-77
2023/06/09 06:39:14;;;;;;;10.63;9.00;;;;;;;;;;4954821;28;20855;-77
2023/06/09 06:41:41;;;;;;;10.35;9.30;;;;;;;;;;4954131;29;20200;-77
2023/06/09 06:44:08;;;;;;;10.63;9.52;;;;;;;;;;4953940;28;20203;-77
2023/06/09 06:46:35;;;;;;;9.82;8.88;;;;;;;;;;4954769;28;20223;-77
2023/06/09 06:49:03;;;;;;;10.05;9.10;;;;;;;;;;4954212;29;20299;-77
2023/06/09 06:51:31;;;;;;;10.32;9.32;;;;;;;;;;4954544;28;20226;-76
2023/06/09 06:53:59;;;;;;;10.30;9.20;;;;;;;;;;4954111;28;20290;-77
2023/06/09 06:56:26;;;;;;;11.93;9.65;;;;;;;;;;4953922;29;20294;-77
2023/06/09 06:58:54;;;;;;;10.35;9.35;;;;;;;;;;4953932;28;20235;-78
2023/06/09 07:01:21;;;;;;;10.73;9.60;;;;;;;;;;4954320;29;20254;-77
2023/06/09 07:03:49;;;;;;;10.40;9.50;;;;;;;;;;4954267;28;20195;-77
2023/06/09 07:06:17;;;;;;;12.38;8.95;;;;;;;;;;4954225;29;20569;-77
2023/06/09 07:08:44;;;;;;;11.48;9.30;;;;;;;;;;4953826;28;20203;-78
2023/06/09 07:11:12;;;;;;;10.82;9.32;;;;;;;;;;4953916;29;20339;-77
2023/06/09 07:13:40;;;;;;;10.55;9.23;;;;;;;;;;4960087;28;20291;-77
2023/06/09 07:16:07;;;;;;;10.27;9.30;;;;;;;;;;4955872;28;20324;-77
2023/06/09 07:18:36;;;;;;;11.63;9.57;;;;;;;;;;4954217;28;20195;-77
2023/06/09 07:21:03;;;;;;;11.45;9.18;;;;;;;;;;4953716;29;20262;-77
2023/06/09 07:23:30;;;;;;;11.98;9.38;;;;;;;;;;4953888;28;20202;-77
2023/06/09 07:25:57;;;;;;;9.93;8.88;;;;;;;;;;4952744;28;20290;-76
2023/06/09 07:28:26;;;;;;;9.32;8.38;;;;;;;;;;4953735;29;20206;-77
2023/06/09 07:30:53;;;;;;;9.73;8.82;;;;;;;;;;4953659;29;20238;-76
2023/06/09 07:33:20;;;;;;;9.65;8.35;;;;;;;;;;4953768;28;20344;-78
2023/06/09 07:35:48;;;;;;;9.45;8.35;;;;;;;;;;4953758;29;20286;-77
2023/06/09 07:38:16;;;;;;;11.57;8.65;;;;;;;;;;4953347;28;20608;-77
2023/06/09 07:40:43;;;;;;;9.88;8.73;;;;;;;;;;4952877;29;20318;-77
2023/06/09 07:43:11;;;;;;;9.73;8.90;;;;;;;;;;4953504;29;20287;-79
2023/06/09 07:45:39;;;;;;;8.82;8.02;;;;;;;;;;4953176;29;20290;-78
2023/06/09 07:48:07;;;;;;;13.10;8.63;;;;;;;;;;4952753;28;20650;-77
2023/06/09 07:50:34;;;;;;;9.20;8.30;;;;;;;;;;4952775;29;20195;-77
2023/06/09 07:53:03;;;;;;;10.68;8.82;;;;;;;;;;4954973;28;20213;-79
2023/06/09 07:55:30;;;;;;;9.02;8.13;;;;;;;;;;4952915;28;20245;-78
2023/06/09 07:57:57;;;;;;;8.82;7.93;;;;;;;;;;4952925;29;20222;-79
2023/06/09 08:00:24;;;;;;;9.20;8.30;;;;;;;;;;4953363;29;20255;-78
2023/06/09 08:02:53;;;;;;;9.57;8.68;;;;;;;;;;4952864;29;20289;-79
2023/06/09 08:05:21;;;;;;;9.23;8.13;;;;;;;;;;4953081;29;20200;-79
2023/06/09 08:07:48;;;;;;;9.35;8.15;;;;;;;;;;4952943;29;20199;-78
2023/06/09 08:10:16;;;;;;;9.30;8.27;;;;;;;;;;4953258;28;20584;-78
2023/06/09 08:12:43;;;;;;;9.60;8.63;;;;;;;;;;4953381;29;20298;-78
2023/06/09 08:15:10;;;;;;;9.23;8.43;;;;;;;;;;4953153;29;20298;-79
2023/06/09 08:17:37;;;;;;;9.65;8.43;;;;;;;;;;4952593;28;20317;-78
2023/06/09 08:20:07;;;;;;;9.20;8.27;;;;;;;;;;4953384;28;20231;-78
2023/06/09 08:22:34;;;;;;;11.80;8.52;;;;;;;;;;4952922;29;20222;-79
2023/06/09 08:25:02;;;;;;;8.55;7.65;;;;;;;;;;4953006;28;20298;-77
2023/06/09 08:27:29;;;;;;;11.18;8.15;;;;;;;;;;4953021;29;20203;-78
2023/06/09 08:29:56;;;;;;;9.73;8.18;;;;;;;;;;4952839;28;20203;-78
2023/06/09 08:32:23;;;;;;;11.43;8.68;;;;;;;;;;4953292;28;20744;-79
2023/06/09 08:34:51;;;;;;;11.32;8.23;;;;;;;;;;4953318;28;20254;-78
2023/06/09 08:37:21;;;;;;;12.57;8.27;;;;;;;;;;4952615;28;20686;-79
2023/06/09 08:39:48;;;;;;;9.52;8.07;;;;;;;;;;4956468;29;20237;-78
2023/06/09 08:42:18;;;;;;;9.52;8.40;;;;;;;;;;4956608;28;20574;-78
2023/06/09 08:44:48;;;;;;;9.50;8.02;;;;;;;;;;4957026;29;20661;-78
2023/06/09 08:47:17;;;;;;;9.30;8.10;;;;;;;;;;4956596;29;20205;-79
2023/06/09 08:49:44;;;;;;;11.00;8.43;;;;;;;;;;4956539;29;20214;-78
2023/06/09 08:52:11;;;;;;;11.52;8.30;;;;;;;;;;4956151;28;20314;-78
2023/06/09 08:54:40;;;;;;;9.10;7.88;;;;;;;;;;4956488;28;20200;-79
2023/06/09 08:57:09;;;;;;;8.70;7.80;;;;;;;;;;4956929;28;20570;-79
2023/06/09 08:59:36;;;;;;;12.60;8.20;;;;;;;;;;4956377;28;20235;-78
2023/06/09 09:02:03;;;;;;;8.70;7.75;;;;;;;;;;4956295;28;20286;-78
2023/06/09 09:04:31;;;;;;;9.45;8.10;;;;;;;;;;4956164;28;20650;-78
2023/06/09 09:06:58;;;;;;;8.32;7.32;;;;;;;;;;4956009;29;20310;-79
2023/06/09 09:09:25;;;;;;;9.10;7.72;;;;;;;;;;4956564;28;20223;-77
2023/06/09 09:11:59;;;;;;;11.93;8.10;;;;;;;;;;4956216;29;20199;-78
2023/06/09 09:14:27;;;;;;;11.15;7.03;;;;;;;;;;4956172;28;20629;-78
2023/06/09 09:16:54;;;;;;;9.93;7.50;;;;;;;;;;4956255;29;20279;-78
2023/06/09 09:19:26;;;;;;;8.45;7.38;;;;;;;;;;4955832;28;20657;-78
2023/06/09 09:21:53;;;;;;;10.32;7.95;;;;;;;;;;4955827;28;20255;-78
2023/06/09 09:24:20;;;;;;;8.52;7.70;;;;;;;;;;4956029;28;20293;-78
2023/06/09 09:26:47;;;;;;;8.50;7.57;;;;;;;;;;4955700;29;20626;-78
2023/06/09 09:29:16;;;;;;;8.75;7.50;;;;;;;;;;4956020;29;20253;-79
2023/06/09 09:31:43;;;;;;;8.52;7.72;;;;;;;;;;4955693;29;20302;-78
2023/06/09 09:34:13;;;;;;;11.07;7.68;;;;;;;;;;4955686;28;20748;-78
2023/06/09 09:36:43;;;;;;;8.80;7.90;;;;;;;;;;4955496;29;20298;-78
2023/06/09 09:39:10;;;;;;;8.25;7.55;;;;;;;;;;4955739;29;20290;-78
2023/06/09 09:41:38;;;;;;;8.90;7.95;;;;;;;;;;4956108;28;20235;-79
2023/06/09 09:44:06;;;;;;;8.82;7.93;;;;;;;;;;4955557;29;20293;-79
2023/06/09 09:46:38;;;;;;;8.93;7.82;;;;;;;;;;4955684;29;20281;-78
2023/06/09 09:49:07;;;;;;;8.70;7.68;;;;;;;;;;4954543;28;20238;-79
2023/06/09 09:51:35;;;;;;;9.00;8.10;;;;;;;;;;4955539;28;20211;-79
2023/06/09 09:54:02;;;;;;;9.20;8.25;;;;;;;;;;4955200;28;20696;-79
2023/06/09 09:56:30;;;;;;;8.70;7.82;;;;;;;;;;4955417;28;20211;-79
2023/06/09 09:58:57;;;;;;;10.77;8.48;;;;;;;;;;4955069;28;20755;-79
2023/06/09 10:01:25;;;;;;;12.07;8.27;;;;;;;;;;4955273;29;20795;-78
2023/06/09 10:03:55;;;;;;;8.77;7.82;;;;;;;;;;4954973;28;20203;-78
2023/06/09 10:06:27;;;;;;;11.65;8.02;;;;;;;;;;4955674;28;20231;-79
2023/06/09 10:08:55;;;;;;;8.95;8.05;;;;;;;;;;4955216;29;20302;-78
2023/06/09 10:11:23;;;;;;;8.63;7.80;;;;;;;;;;4954884;29;20199;-78
2023/06/09 10:13:50;;;;;;;8.98;8.13;;;;;;;;;;4955203;28;20347;-79
2023/06/09 10:16:18;;;;;;;9.52;7.28;;;;;;;;;;4955189;28;20273;-78
2023/06/09 10:18:45;;;;;;;9.05;7.82;;;;;;;;;;4954636;29;20238;-78
2023/06/09 10:21:14;;;;;;;8.88;7.95;;;;;;;;;;4955041;29;20322;-78
2023/06/09 10:23:42;;;;;;;8.40;7.32;;;;;;;;;;4955003;29;20234;-78
2023/06/09 10:26:10;;;;;;;10.15;8.40;;;;;;;;;;4954972;28;20202;-79
2023/06/09 10:28:37;;;;;;;8.73;7.82;;;;;;;;;;4954593;28;20680;-78
2023/06/09 10:31:06;;;;;;;8.60;7.72;;;;;;;;;;4955002;29;20195;-78
2023/06/09 10:33:34;;;;;;;8.85;7.90;;;;;;;;;;4954197;28;20250;-78
2023/06/09 10:36:05;;;;;;;8.60;7.80;;;;;;;;;;4954571;28;20227;-79
2023/06/09 10:38:41;;;;;;;10.10;8.25;;;;;;;;;;4954741;29;20195;-78
2023/06/09 10:41:11;;;;;;;9.05;8.23;;;;;;;;;;4954377;28;20231;-78
2023/06/09 10:43:53;;;;;;;10.48;8.77;;;;;;;;;;4954343;29;20195;-78
2023/06/09 10:46:40;;;;;;;13.32;10.13;;;;;;;;;;4953943;29;20289;-78
2023/06/09 10:49:07;;;;;;;18.38;10.40;;;;;;;;;;4954329;28;20269;-80
2023/06/09 10:51:41;;;;;;;14.73;10.73;;;;;;;;;;4954407;28;20231;-80
2023/06/09 10:54:20;;;;;;;15.65;12.27;;;;;;;;;;4954480;29;20264;-80
2023/06/09 10:56:52;;;;;;;16.38;12.30;;;;;;;;;;4954783;28;20203;-80
2023/06/09 10:59:38;;;;;;;13.93;10.95;;;;;;;;;;4954314;29;20203;-80
2023/06/09 11:02:23;;;;;;;11.98;10.88;;;;;;;;;;4952811;28;20333;-80
2023/06/09 11:04:52;;;;;;;13.13;11.73;;;;;;;;;;4954106;28;20206;-80
2023/06/09 11:07:20;;;;;;;11.70;10.60;;;;;;;;;;4954423;28;20207;-80
2023/06/09 11:10:02;;;;;;;15.32;11.27;;;;;;;;;;4953740;28;20200;-79
2023/06/09 11:12:31;;;;;;;12.63;11.30;;;;;;;;;;4953577;28;20985;-80
2023/06/09 11:14:59;;;;;;;12.38;11.15;;;;;;;;;;4953820;28;20665;-79
2023/06/09 11:17:29;;;;;;;12.48;11.25;;;;;;;;;;4952969;28;20231;-80
2023/06/09 11:20:11;;;;;;;12.48;11.27;;;;;;;;;;4954164;29;20202;-80
2023/06/09 11:22:59;;;;;;;12.10;10.98;;;;;;;;;;4953928;28;20589;-80
2023/06/09 11:25:36;;;;;;;11.00;9.88;;;;;;;;;;4953882;28;20206;-78
2023/06/09 11:28:23;;;;;;;13.55;12.25;;;;;;;;;;4953561;28;20234;-80
2023/06/09 11:31:03;;;;;;;12.25;11.05;;;;;;;;;;4953117;28;20210;-79
2023/06/09 11:33:55;;;;;;;12.77;11.40;;;;;;;;;;4953702;29;20642;-80
2023/06/09 11:36:25;;;;;;;10.77;9.68;;;;;;;;;;4948732;28;20203;-80
2023/06/09 11:38:52;;;;;;;12.18;10.98;;;;;;;;;;4953497;28;20306;-80
2023/06/09 11:41:21;;;;;;;12.02;10.82;;;;;;;;;;4951407;29;20269;-80
2023/06/09 11:43:53;;;;;;;12.43;11.15;;;;;;;;;;4951287;28;20199;-79
2023/06/09 11:46:20;;;;;;;11.05;10.18;;;;;;;;;;4939959;29;20286;-78
2023/06/09 11:49:00;;;;;;;11.75;10.60;;;;;;;;;;4953672;28;20278;-79
2023/06/09 11:51:28;;;;;;;10.77;9.90;;;;;;;;;;4953042;29;20234;-79
2023/06/09 11:53:55;;;;;;;10.13;9.07;;;;;;;;;;4953651;28;20206;-79
2023/06/09 11:56:23;;;;;;;9.10;8.25;;;;;;;;;;4959245;28;20681;-79
2023/06/09 11:58:55;;;;;;;9.82;8.93;;;;;;;;;;4953666;28;20203;-77
2023/06/09 12:01:31;;;;;;;8.52;7.72;;;;;;;;;;4952808;28;20242;-77
2023/06/09 12:03:58;;;;;;;10.70;9.52;;;;;;;;;;4953608;28;20203;-77
2023/06/09 12:06:26;;;;;;;9.48;8.57;;;;;;;;;;4953184;28;20285;-77
2023/06/09 12:08:53;;;;;;;11.60;8.90;;;;;;;;;;4953255;29;20274;-77
2023/06/09 12:11:20;;;;;;;9.98;9.10;;;;;;;;;;4953050;28;20716;-79
2023/06/09 12:13:48;;;;;;;10.00;9.00;;;;;;;;;;4971657;28;20201;-80
2023/06/09 12:16:17;;;;;;;10.07;9.25;;;;;;;;;;4959679;28;20222;-79
2023/06/09 12:18:44;;;;;;;10.55;9.65;;;;;;;;;;4961700;28;20199;-79
2023/06/09 12:21:13;;;;;;;11.68;10.48;;;;;;;;;;4970125;28;20254;-78
2023/06/09 12:23:40;;;;;;;11.57;10.55;;;;;;;;;;4956734;29;20203;-79
2023/06/09 12:26:08;;;;;;;11.45;10.43;;;;;;;;;;4964237;28;20627;-80
2023/06/09 12:28:35;;;;;;;11.75;10.43;;;;;;;;;;4968596;28;20225;-80
2023/06/09 12:31:09;;;;;;;12.50;11.20;;;;;;;;;;4975981;28;20207;-79
2023/06/09 12:33:38;;;;;;;12.65;10.50;;;;;;;;;;4966768;28;20301;-79
2023/06/09 12:36:06;;;;;;;13.85;9.82;;;;;;;;;;4957210;29;20241;-79
2023/06/09 12:38:36;;;;;;;11.00;9.60;;;;;;;;;;4956999;28;20203;-79
2023/06/09 12:41:05;;;;;;;13.57;10.30;;;;;;;;;;4960962;28;20225;-79
2023/06/09 12:43:44;;;;;;;11.10;10.00;;;;;;;;;;4956074;29;20203;-79
2023/06/09 12:46:11;;;;;;;10.45;9.55;;;;;;;;;;4965545;28;20747;-79
2023/06/09 12:48:53;;;;;;;11.50;10.07;;;;;;;;;;4975832;28;20261;-79
2023/06/09 12:51:21;;;;;;;11.27;10.15;;;;;;;;;;4966027;28;20210;-80
2023/06/09 12:53:50;;;;;;;10.45;9.43;;;;;;;;;;4961672;28;20305;-79
2023/06/09 12:56:17;;;;;;;11.57;10.40;;;;;;;;;;4975809;28;20260;-79
2023/06/09 12:58:45;;;;;;;12.10;11.10;;;;;;;;;;4975212;28;20277;-79
2023/06/09 13:01:12;;;;;;;11.27;10.30;;;;;;;;;;4976110;28;20290;-78
2023/06/09 13:03:40;;;;;;;11.95;10.85;;;;;;;;;;4975302;28;20286;-79
2023/06/09 13:06:07;;;;;;;12.50;11.25;;;;;;;;;;4953544;28;20290;-78
2023/06/09 13:08:36;;;;;;;10.00;9.10;;;;;;;;;;4956107;28;20747;-79
2023/06/09 13:11:03;;;;;;;12.50;9.85;;;;;;;;;;4956048;28;20298;-79
2023/06/09 13:13:31;;;;;;;10.50;9.40;;;;;;;;;;4955305;28;20203;-80
2023/06/09 13:15:58;;;;;;;9.13;8.32;;;;;;;;;;4956031;28;20239;-78
2023/06/09 13:18:25;;;;;;;8.18;7.38;;;;;;;;;;4955817;28;20201;-79
2023/06/09 13:20:53;;;;;;;7.47;6.88;;;;;;;;;;4955090;28;20290;-77
2023/06/09 13:23:20;;;;;;;7.47;6.78;;;;;;;;;;4954815;28;20230;-79
2023/06/09 13:25:49;;;;;;;8.50;7.55;;;;;;;;;;4955468;28;20211;-79
2023/06/09 13:28:16;;;;;;;7.75;7.05;;;;;;;;;;4955659;28;20297;-79
2023/06/09 13:30:44;;;;;;;9.48;7.45;;;;;;;;;;4955517;28;20298;-79
2023/06/09 13:33:11;;;;;;;8.13;7.43;;;;;;;;;;4955481;28;20625;-79
2023/06/09 13:35:41;;;;;;;9.82;8.07;;;;;;;;;;4955487;28;20286;-78
2023/06/09 13:38:08;;;;;;;8.73;7.93;;;;;;;;;;4955386;28;20728;-78
2023/06/09 13:40:36;;;;;;;8.63;7.72;;;;;;;;;;4955396;28;20231;-78
2023/06/09 13:43:06;;;;;;;8.55;7.72;;;;;;;;;;4954827;28;20239;-78
2023/06/09 13:45:33;;;;;;;8.65;7.75;;;;;;;;;;4955142;28;20199;-79
2023/06/09 13:48:00;;;;;;;10.70;7.53;;;;;;;;;;4955060;28;20287;-79
2023/06/09 13:50:28;;;;;;;8.50;7.05;;;;;;;;;;4973679;28;20230;-78
2023/06/09 13:52:55;;;;;;;9.07;7.22;;;;;;;;;;4974485;28;20198;-78
2023/06/09 13:55:23;;;;;;;7.90;6.97;;;;;;;;;;4974034;28;20664;-78
2023/06/09 13:57:50;;;;;;;8.43;7.63;;;;;;;;;;4974488;28;20210;-78
2023/06/09 14:00:19;;;;;;;9.70;8.02;;;;;;;;;;4957726;28;20716;-78
2023/06/09 14:02:46;;;;;;;13.15;8.90;;;;;;;;;;4954862;28;20274;-78
2023/06/09 14:05:14;;;;;;;10.25;9.25;;;;;;;;;;4954078;28;20294;-78
2023/06/09 14:07:41;;;;;;;8.68;7.78;;;;;;;;;;4955553;29;20277;-78
2023/06/09 14:10:09;;;;;;;7.43;6.72;;;;;;;;;;4954672;29;20246;-78
2023/06/09 14:12:38;;;;;;;7.07;6.38;;;;;;;;;;4954915;28;20800;-77
2023/06/09 14:15:11;;;;;;;5.07;4.63;;;;;;;;;;4955225;29;20207;-78
2023/06/09 14:17:47;;;;;;;7.35;5.05;;;;;;;;;;4955097;29;20777;-78
2023/06/09 14:20:14;;;;;;;6.63;5.80;;;;;;;;;;4954190;29;20234;-79
2023/06/09 14:22:45;;;;;;;10.38;6.18;;;;;;;;;;4954949;28;20716;-78
2023/06/09 14:25:18;;;;;;;9.10;6.70;;;;;;;;;;4953374;28;20266;-78
2023/06/09 14:27:45;;;;;;;8.93;7.32;;;;;;;;;;4954988;28;20585;-78
2023/06/09 14:30:14;;;;;;;11.63;7.65;;;;;;;;;;4954949;29;20207;-78
2023/06/09 14:32:44;;;;;;;11.07;7.18;;;;;;;;;;4955133;29;20678;-78
2023/06/09 14:35:14;;;;;;;7.55;6.78;;;;;;;;;;4954522;28;20690;-78
2023/06/09 14:37:41;;;;;;;6.80;6.10;;;;;;;;;;4954638;28;20660;-78
2023/06/09 14:40:09;;;;;;;7.55;6.45;;;;;;;;;;4953303;28;20740;-78
2023/06/09 14:42:36;;;;;;;7.20;6.47;;;;;;;;;;4954728;29;20616;-77
2023/06/09 14:45:03;;;;;;;8.13;6.50;;;;;;;;;;4953821;29;20203;-77